Time;durP1;ratioP1;P1;durP2;ratioP2;P2;SDS_P1;SDS_P2;PMS_P1;PMS_P2;Temp;Humidity;BMP_temperature;BMP_pressure;BME280_temperature;BME280_humidity;BME280_pressure;Samples;Min_cycle;Max_cycle;Signal;HPM_P1;HPM_P2
2023/04/24 00:00:33;;;;;;;6.57;3.78;;;;;;;21.13;40.82;99473.41;5054510;28;20053;-68
2023/04/24 00:03:04;;;;;;;5.75;3.75;;;;;;;21.12;41.20;99478.00;5054246;28;20053;-70
2023/04/24 00:05:32;;;;;;;6.57;3.80;;;;;;;21.11;41.04;99479.03;5053739;28;20445;-68
2023/04/24 00:08:00;;;;;;;5.38;3.60;;;;;;;21.09;41.08;99474.81;5056030;28;20049;-68
2023/04/24 00:10:29;;;;;;;9.32;4.28;;;;;;;21.08;40.89;99468.53;5056304;28;20127;-68
2023/04/24 00:12:57;;;;;;;5.55;3.63;;;;;;;21.07;40.89;99466.03;5056455;28;20132;-67
2023/04/24 00:15:28;;;;;;;6.05;3.80;;;;;;;21.07;40.69;99460.59;5056042;28;20068;-69
2023/04/24 00:17:56;;;;;;;7.05;3.95;;;;;;;21.06;41.06;99461.63;5054930;28;20060;-70
2023/04/24 00:20:25;;;;;;;7.03;3.90;;;;;;;21.04;40.49;99459.09;5054350;28;20053;-68
2023/04/24 00:22:54;;;;;;;6.47;3.90;;;;;;;21.04;40.45;99469.94;5054084;28;20049;-67
2023/04/24 00:25:25;;;;;;;6.93;4.10;;;;;;;21.03;40.48;99467.38;5054173;28;20049;-68
2023/04/24 00:27:53;;;;;;;7.07;3.85;;;;;;;21.02;40.80;99474.66;5054407;28;20603;-68
2023/04/24 00:30:21;;;;;;;5.57;3.92;;;;;;;21.01;40.57;99478.41;5053785;28;20048;-67
2023/04/24 00:32:49;;;;;;;6.38;3.70;;;;;;;21.01;40.39;99474.84;5054064;28;20110;-68
2023/04/24 00:35:19;;;;;;;6.13;3.97;;;;;;;21.00;40.30;99475.88;5053718;28;20052;-67
2023/04/24 00:37:49;;;;;;;5.72;4.00;;;;;;;20.99;40.24;99469.63;5053893;28;20136;-68
2023/04/24 00:40:17;;;;;;;7.18;4.20;;;;;;;20.98;40.25;99470.66;5053496;28;20044;-68
2023/04/24 00:42:46;;;;;;;6.88;3.75;;;;;;;20.97;40.75;99463.53;5053538;28;20103;-68
2023/04/24 00:45:14;;;;;;;5.90;3.60;;;;;;;20.97;40.60;99462.69;5053657;28;20139;-68
2023/04/24 00:47:43;;;;;;;7.28;3.78;;;;;;;20.97;40.67;99458.13;5053606;28;20048;-68
2023/04/24 00:50:13;;;;;;;6.45;4.07;;;;;;;20.95;40.54;99460.16;5053705;28;20057;-68
2023/04/24 00:52:41;;;;;;;5.82;3.85;;;;;;;20.95;40.50;99452.03;5053083;28;20049;-68
2023/04/24 00:55:11;;;;;;;6.43;4.00;;;;;;;20.94;40.56;99457.59;5053624;28;20048;-68
2023/04/24 00:57:40;;;;;;;5.85;3.42;;;;;;;20.92;40.48;99455.06;5053789;28;20045;-68
2023/04/24 01:00:11;;;;;;;6.78;3.88;;;;;;;20.92;40.51;99459.66;5053644;28;20383;-67
2023/04/24 01:02:43;;;;;;;5.28;4.10;;;;;;;20.90;39.99;99451.72;5053295;28;20103;-67
2023/04/24 01:05:13;;;;;;;5.65;3.33;;;;;;;20.91;40.66;99452.56;5053386;28;20057;-67
2023/04/24 01:07:43;;;;;;;6.47;3.72;;;;;;;20.90;40.77;99456.28;5053191;28;20044;-69
2023/04/24 01:10:14;;;;;;;6.43;4.05;;;;;;;20.89;40.50;99460.88;5053341;28;20084;-68
2023/04/24 01:12:43;;;;;;;6.40;3.85;;;;;;;20.88;40.54;99448.34;5053193;28;20128;-68
2023/04/24 01:15:11;;;;;;;5.57;3.65;;;;;;;20.88;40.30;99452.91;5053266;28;20052;-68
2023/04/24 01:17:39;;;;;;;6.22;4.45;;;;;;;20.86;40.60;99462.06;5053176;28;20048;-68
2023/04/24 01:20:09;;;;;;;6.07;3.97;;;;;;;20.86;40.36;99458.53;5052983;28;20045;-68
2023/04/24 01:22:38;;;;;;;7.13;4.00;;;;;;;20.85;40.58;99457.69;5052781;28;20071;-68
2023/04/24 01:25:07;;;;;;;6.13;3.88;;;;;;;20.84;40.75;99452.41;5053006;28;20140;-68
2023/04/24 01:27:35;;;;;;;7.00;4.10;;;;;;;20.84;40.63;99452.41;5052978;28;20477;-68
2023/04/24 01:30:04;;;;;;;6.15;4.15;;;;;;;20.82;40.62;99440.91;5052799;28;20410;-68
2023/04/24 01:32:32;;;;;;;6.43;3.92;;;;;;;20.82;40.62;99443.63;5052818;28;20053;-68
2023/04/24 01:35:01;;;;;;;7.03;3.90;;;;;;;20.82;40.97;99438.19;5052588;28;20044;-67
2023/04/24 01:37:29;;;;;;;6.70;3.85;;;;;;;20.79;40.57;99433.97;5052866;28;20049;-67
2023/04/24 01:39:59;;;;;;;5.80;4.30;;;;;;;20.79;40.77;99438.56;5052847;28;20045;-67
2023/04/24 01:42:28;;;;;;;5.35;3.83;;;;;;;20.78;40.55;99437.72;5052526;28;20049;-68
2023/04/24 01:44:56;;;;;;;5.97;3.78;;;;;;;20.78;40.66;99439.59;5052457;28;20055;-68
2023/04/24 01:47:24;;;;;;;7.10;4.18;;;;;;;20.77;40.51;99437.91;5052468;28;20132;-68
2023/04/24 01:49:53;;;;;;;5.80;3.80;;;;;;;20.76;40.81;99431.63;5052769;28;20087;-68
2023/04/24 01:52:21;;;;;;;5.82;3.95;;;;;;;20.76;41.03;99428.09;5052554;28;20053;-67
2023/04/24 01:54:49;;;;;;;5.75;4.05;;;;;;;20.75;40.75;99420.94;5052481;28;20049;-68
2023/04/24 01:57:19;;;;;;;6.22;4.30;;;;;;;20.73;40.87;99420.28;5051251;28;20045;-67
2023/04/24 01:59:47;;;;;;;6.32;4.10;;;;;;;20.72;40.71;99411.31;5052444;28;20052;-66
2023/04/24 02:02:15;;;;;;;5.60;3.70;;;;;;;20.72;40.93;99391.50;5052049;28;20553;-66
2023/04/24 02:04:43;;;;;;;7.85;4.18;;;;;;;20.71;41.27;99376.28;5052481;28;20585;-65
2023/04/24 02:07:12;;;;;;;5.13;3.67;;;;;;;20.70;41.33;99361.88;5052122;28;20052;-65
2023/04/24 02:09:40;;;;;;;7.07;4.00;;;;;;;20.69;41.40;99368.31;5052123;28;20041;-65
2023/04/24 02:12:09;;;;;;;6.35;4.28;;;;;;;20.69;41.31;99378.31;5052122;28;20052;-65
2023/04/24 02:14:38;;;;;;;5.80;3.90;;;;;;;20.68;41.46;99371.22;5051891;28;20118;-65
2023/04/24 02:17:06;;;;;;;5.68;3.75;;;;;;;20.68;41.52;99371.22;5051857;28;20071;-65
2023/04/24 02:19:35;;;;;;;6.13;3.97;;;;;;;20.67;41.47;99358.69;5051973;28;20045;-65
2023/04/24 02:22:03;;;;;;;6.13;3.95;;;;;;;20.66;41.23;99357.00;5051512;28;20041;-65
2023/04/24 02:24:31;;;;;;;7.55;4.00;;;;;;;20.65;41.68;99366.97;5051784;28;20049;-65
2023/04/24 02:27:00;;;;;;;7.32;4.10;;;;;;;20.65;41.47;99364.25;5051722;28;20071;-65
2023/04/24 02:29:28;;;;;;;5.45;4.20;;;;;;;20.64;41.34;99365.28;5051686;28;20406;-66
2023/04/24 02:31:57;;;;;;;5.80;3.75;;;;;;;20.64;41.65;99359.03;5051873;28;20045;-65
2023/04/24 02:34:26;;;;;;;5.88;3.80;;;;;;;20.63;41.45;99357.34;5051666;28;20171;-66
2023/04/24 02:36:54;;;;;;;5.43;3.90;;;;;;;20.62;41.65;99355.66;5051726;28;20051;-66
2023/04/24 02:39:22;;;;;;;5.30;4.03;;;;;;;20.62;41.54;99361.09;5051669;28;20052;-65
2023/04/24 02:41:51;;;;;;;6.30;4.13;;;;;;;20.61;41.93;99353.97;5051535;28;20081;-65
2023/04/24 02:44:19;;;;;;;6.43;3.95;;;;;;;20.61;41.99;99348.56;5051689;28;20084;-66
2023/04/24 02:46:47;;;;;;;6.07;3.67;;;;;;;20.58;41.95;99358.75;5051551;28;20045;-66
2023/04/24 02:49:16;;;;;;;7.07;4.05;;;;;;;20.59;42.01;99354.16;5051672;28;20620;-66
2023/04/24 02:51:45;;;;;;;6.32;4.13;;;;;;;20.58;42.04;99352.47;5051413;28;20045;-66
2023/04/24 02:54:13;;;;;;;5.45;3.90;;;;;;;20.57;42.01;99351.63;5051547;28;20513;-66
2023/04/24 02:56:41;;;;;;;6.55;3.83;;;;;;;20.57;41.84;99348.94;5051522;28;20475;-65
2023/04/24 02:59:10;;;;;;;5.35;3.97;;;;;;;20.56;41.94;99352.66;5051561;28;20106;-65
2023/04/24 03:01:38;;;;;;;6.82;4.05;;;;;;;20.54;42.31;99349.25;5051661;28;20407;-65
2023/04/24 03:04:06;;;;;;;6.65;4.15;;;;;;;20.55;42.26;99350.94;5051435;28;20053;-65
2023/04/24 03:06:36;;;;;;;6.10;4.10;;;;;;;20.53;42.40;99344.88;5051479;28;20056;-65
2023/04/24 03:09:05;;;;;;;6.32;4.28;;;;;;;20.54;42.31;99340.28;5051400;28;20045;-65
2023/04/24 03:11:33;;;;;;;6.35;4.15;;;;;;;20.52;42.13;99345.91;5051595;28;20106;-65
2023/04/24 03:14:01;;;;;;;6.72;4.32;;;;;;;20.51;42.19;99338.78;5051265;28;20391;-65
2023/04/24 03:16:29;;;;;;;6.05;3.83;;;;;;;20.52;42.48;99340.47;5051564;28;20088;-65
2023/04/24 03:18:57;;;;;;;6.50;3.83;;;;;;;20.51;42.70;99336.09;5051309;28;20041;-65
2023/04/24 03:21:26;;;;;;;6.00;4.10;;;;;;;20.50;42.52;99338.97;5051197;28;20112;-65
2023/04/24 03:23:56;;;;;;;6.53;4.18;;;;;;;20.49;42.41;99335.44;5050985;28;20140;-65
2023/04/24 03:26:24;;;;;;;6.88;4.10;;;;;;;20.49;42.72;99345.41;5051321;28;20049;-66
2023/04/24 03:28:52;;;;;;;6.72;4.07;;;;;;;20.48;42.67;99339.16;5051353;28;20099;-66
2023/04/24 03:31:21;;;;;;;6.68;4.10;;;;;;;20.48;42.44;99349.16;5051174;28;20139;-66
2023/04/24 03:33:49;;;;;;;7.22;3.90;;;;;;;20.47;42.48;99342.06;5053152;28;20045;-66
2023/04/24 03:36:18;;;;;;;6.40;3.92;;;;;;;20.46;42.96;99349.34;5054794;28;20082;-66
2023/04/24 03:38:47;;;;;;;5.78;4.00;;;;;;;20.46;42.94;99338.50;5055148;28;20056;-66
2023/04/24 03:41:16;;;;;;;7.40;3.90;;;;;;;20.44;42.96;99340.50;5054925;28;20048;-66
2023/04/24 03:43:44;;;;;;;6.22;4.05;;;;;;;20.44;42.64;99345.94;5054956;28;20059;-66
2023/04/24 03:46:12;;;;;;;7.13;3.90;;;;;;;20.43;43.07;99333.41;5054796;28;20127;-66
2023/04/24 03:48:41;;;;;;;5.93;3.95;;;;;;;20.44;43.18;99331.56;5054760;28;20041;-66
2023/04/24 03:51:09;;;;;;;4.75;3.50;;;;;;;20.43;42.91;99328.00;5054569;28;20052;-66
2023/04/24 03:53:37;;;;;;;7.13;3.92;;;;;;;20.42;43.21;99326.28;5054875;28;20049;-66
2023/04/24 03:56:07;;;;;;;6.05;3.95;;;;;;;20.41;42.90;99321.88;5054636;28;20083;-66
2023/04/24 03:58:37;;;;;;;4.97;4.07;;;;;;;20.42;43.26;99338.97;5054566;28;20103;-66
2023/04/24 04:01:05;;;;;;;5.47;3.95;;;;;;;20.40;43.13;99347.28;5054350;28;20045;-66
2023/04/24 04:03:33;;;;;;;5.70;4.10;;;;;;;20.39;42.88;99329.34;5054175;28;20053;-66
2023/04/24 04:06:01;;;;;;;5.97;3.80;;;;;;;20.39;42.99;99339.34;5054327;28;20478;-66
2023/04/24 04:08:30;;;;;;;5.32;3.90;;;;;;;20.39;43.12;99337.47;5054237;28;20085;-66
2023/04/24 04:10:58;;;;;;;5.32;3.95;;;;;;;20.39;43.20;99334.78;5054194;28;20049;-65
2023/04/24 04:13:26;;;;;;;6.45;4.00;;;;;;;20.38;43.31;99332.25;5054103;28;20045;-65
2023/04/24 04:15:55;;;;;;;5.90;3.92;;;;;;;20.37;43.03;99334.13;5054066;28;20127;-66
2023/04/24 04:18:24;;;;;;;5.90;3.90;;;;;;;20.37;43.04;99333.28;5054382;28;20041;-66
2023/04/24 04:20:52;;;;;;;5.50;3.80;;;;;;;20.36;43.36;99329.69;5054052;28;20049;-66
2023/04/24 04:23:20;;;;;;;6.43;4.35;;;;;;;20.37;43.52;99333.28;5053947;28;20084;-66
2023/04/24 04:25:48;;;;;;;7.90;4.15;;;;;;;20.36;43.25;99328.84;5053890;28;20053;-66
2023/04/24 04:28:19;;;;;;;6.07;4.10;;;;;;;20.35;43.58;99328.00;5053952;28;20049;-66
2023/04/24 04:30:48;;;;;;;9.10;4.10;;;;;;;20.35;43.43;99338.84;5054087;28;20057;-66
2023/04/24 04:33:18;;;;;;;6.90;4.38;;;;;;;20.35;43.18;99338.84;5053939;28;20410;-66
2023/04/24 04:35:48;;;;;;;6.10;4.32;;;;;;;20.34;43.24;99341.72;5053828;28;20049;-66
2023/04/24 04:38:17;;;;;;;6.25;4.13;;;;;;;20.33;43.25;99340.03;5054110;28;20077;-66
2023/04/24 04:40:46;;;;;;;5.25;3.70;;;;;;;20.33;43.24;99338.19;5053661;28;20132;-66
2023/04/24 04:43:14;;;;;;;6.72;4.20;;;;;;;20.32;43.51;99322.94;5053388;28;20049;-66
2023/04/24 04:45:43;;;;;;;6.22;4.35;;;;;;;20.32;43.74;99322.94;5053064;28;20072;-66
2023/04/24 04:48:13;;;;;;;6.45;4.07;;;;;;;20.31;43.65;99326.69;5053618;28;20051;-66
2023/04/24 04:50:42;;;;;;;5.68;4.00;;;;;;;20.30;43.58;99325.84;5053424;28;20083;-65
2023/04/24 04:53:11;;;;;;;6.40;4.03;;;;;;;20.30;43.58;99330.41;5053427;28;20049;-66
2023/04/24 04:55:39;;;;;;;6.55;4.47;;;;;;;20.30;43.46;99331.25;5053176;28;20127;-65
2023/04/24 04:58:07;;;;;;;5.00;3.85;;;;;;;20.30;43.68;99319.59;5053442;28;20052;-67
2023/04/24 05:00:37;;;;;;;6.15;3.92;;;;;;;20.29;43.72;99315.19;5053318;28;20045;-67
2023/04/24 05:03:05;;;;;;;8.18;4.18;;;;;;;20.28;43.72;99311.66;5053211;28;20044;-67
2023/04/24 05:05:49;;;;;;;5.35;3.75;;;;;;;20.28;43.88;99316.22;5052968;28;20513;-66
2023/04/24 05:08:18;;;;;;;6.78;4.07;;;;;;;20.28;43.97;99316.22;5052978;28;20053;-67
2023/04/24 05:10:58;;;;;;;7.43;4.40;;;;;;;20.28;43.98;99316.22;5053123;28;20049;-67
2023/04/24 05:13:26;;;;;;;5.80;3.95;;;;;;;20.27;43.80;99312.66;5053108;28;20049;-66
2023/04/24 05:16:05;;;;;;;6.63;4.10;;;;;;;20.28;43.72;99316.22;5052909;28;20609;-66
2023/04/24 05:18:33;;;;;;;7.68;4.50;;;;;;;20.28;43.68;99321.63;5052498;28;20070;-66
2023/04/24 05:21:03;;;;;;;6.43;4.20;;;;;;;20.28;44.01;99321.63;5052813;28;20099;-66
2023/04/24 05:23:32;;;;;;;5.22;4.00;;;;;;;20.27;43.70;99317.25;5052909;28;20052;-67
2023/04/24 05:26:00;;;;;;;6.50;4.25;;;;;;;20.27;43.83;99314.53;5066107;28;20139;-67
2023/04/24 05:28:31;;;;;;;5.75;4.07;;;;;;;20.27;43.99;99311.81;5072417;28;20041;-66
2023/04/24 05:31:00;;;;;;;7.50;4.00;;;;;;;20.27;44.14;99314.53;5072675;28;20152;-67
2023/04/24 05:33:29;;;;;;;7.40;4.40;;;;;;;20.26;43.89;99313.66;5072106;28;20048;-67
2023/04/24 05:35:58;;;;;;;6.43;4.10;;;;;;;20.27;43.64;99317.25;5072280;28;20055;-68
2023/04/24 05:38:27;;;;;;;10.38;4.20;;;;;;;20.26;44.07;99308.25;5072060;28;20044;-68
2023/04/24 05:40:55;;;;;;;5.75;3.90;;;;;;;20.26;43.87;99315.53;5071950;28;20518;-67
2023/04/24 05:43:23;;;;;;;8.13;3.88;;;;;;;20.25;44.39;99317.38;5071946;28;20090;-67
2023/04/24 05:45:53;;;;;;;8.32;4.20;;;;;;;20.26;44.18;99329.91;5071642;28;20151;-67
2023/04/24 05:48:22;;;;;;;7.43;4.47;;;;;;;20.26;44.06;99334.47;5071913;28;20049;-67
2023/04/24 05:50:52;;;;;;;10.50;4.50;;;;;;;20.28;44.87;99332.47;5071896;28;20401;-65
2023/04/24 05:53:20;;;;;;;6.90;4.28;;;;;;;20.28;44.80;99327.06;5072182;28;20427;-62
2023/04/24 05:55:50;;;;;;;9.30;4.10;;;;;;;20.30;44.89;99325.00;5071200;28;20497;-62
2023/04/24 05:58:18;;;;;;;8.60;4.43;;;;;;;20.29;44.65;99329.56;5072131;28;20072;-66
2023/04/24 06:00:46;;;;;;;6.90;4.10;;;;;;;20.30;44.78;99333.97;5072200;28;20052;-65
2023/04/24 06:03:15;;;;;;;8.93;4.63;;;;;;;20.30;44.61;99336.69;5071852;28;20086;-66
2023/04/24 06:05:44;;;;;;;10.35;4.15;;;;;;;20.30;44.94;99331.25;5071665;28;20049;-66
2023/04/24 06:08:12;;;;;;;8.35;3.92;;;;;;;20.29;44.92;99318.75;5071945;28;20097;-65
2023/04/24 06:10:41;;;;;;;10.10;4.30;;;;;;;20.30;44.70;99315.00;5071730;28;20473;-67
2023/04/24 06:13:13;;;;;;;10.02;4.38;;;;;;;20.29;44.87;99324.16;5071765;28;20048;-66
2023/04/24 06:15:41;;;;;;;7.63;4.40;;;;;;;20.30;44.83;99325.84;5071910;28;20052;-65
2023/04/24 06:18:10;;;;;;;6.85;4.10;;;;;;;20.29;44.68;99329.56;5071929;28;20052;-64
2023/04/24 06:20:39;;;;;;;8.68;3.88;;;;;;;20.30;44.39;99333.13;5071591;28;20534;-66
2023/04/24 06:23:07;;;;;;;8.23;4.30;;;;;;;20.30;44.56;99338.53;5071941;28;20135;-66
2023/04/24 06:25:35;;;;;;;6.53;4.13;;;;;;;20.30;44.71;99335.84;5071597;28;20059;-66
2023/04/24 06:28:04;;;;;;;8.10;4.45;;;;;;;20.29;44.34;99335.00;5071786;28;20049;-66
2023/04/24 06:30:33;;;;;;;7.35;4.05;;;;;;;20.30;44.56;99333.97;5058994;28;20103;-71
2023/04/24 06:33:01;;;;;;;6.90;4.20;;;;;;;20.30;44.26;99335.84;5051538;28;20071;-66
2023/04/24 06:35:46;;;;;;;6.40;4.05;;;;;;;20.30;44.70;99338.53;5051531;28;20045;-68
2023/04/24 06:38:14;;;;;;;6.80;4.18;;;;;;;20.29;44.55;99334.16;5051314;28;20500;-65
2023/04/24 06:40:42;;;;;;;9.80;4.70;;;;;;;20.29;44.40;99328.72;5051570;28;20055;-65
2023/04/24 06:43:14;;;;;;;8.40;4.20;;;;;;;20.29;44.44;99328.72;5051433;28;20044;-65
2023/04/24 06:45:45;;;;;;;5.18;3.67;;;;;;;20.30;44.55;99335.84;5064515;28;20110;-64
2023/04/24 06:48:16;;;;;;;6.53;3.90;;;;;;;20.30;44.41;99328.56;5071498;28;20131;-65
2023/04/24 06:50:44;;;;;;;5.80;3.78;;;;;;;20.31;44.67;99321.28;5071547;28;20114;-65
2023/04/24 06:53:14;;;;;;;7.05;4.60;;;;;;;20.30;44.50;99325.00;5071603;28;20049;-65
2023/04/24 06:55:43;;;;;;;6.45;3.85;;;;;;;20.30;44.28;99328.56;5071390;28;20102;-64
2023/04/24 06:58:13;;;;;;;8.07;4.32;;;;;;;20.32;44.60;99325.66;5071475;28;20147;-64
2023/04/24 07:00:41;;;;;;;6.07;3.83;;;;;;;20.31;44.63;99326.69;5058140;28;20045;-65
2023/04/24 07:03:11;;;;;;;7.90;4.25;;;;;;;20.31;44.29;99321.28;5051121;28;20046;-63
2023/04/24 07:05:39;;;;;;;8.32;4.05;;;;;;;20.32;44.28;99328.38;5051335;28;20049;-63
2023/04/24 07:08:08;;;;;;;7.78;4.07;;;;;;;20.33;44.73;99327.34;5053858;28;20447;-64
2023/04/24 07:10:36;;;;;;;5.78;4.28;;;;;;;20.33;44.41;99321.94;5053186;28;20045;-64
2023/04/24 07:13:04;;;;;;;6.90;4.40;;;;;;;20.33;44.75;99326.50;5053127;28;20052;-64
2023/04/24 07:15:32;;;;;;;8.00;4.20;;;;;;;20.33;44.69;99327.34;5052958;28;20368;-64
2023/04/24 07:18:01;;;;;;;6.95;3.92;;;;;;;20.34;44.39;99314.66;5052867;28;20087;-64
2023/04/24 07:20:34;;;;;;;5.50;3.90;;;;;;;20.34;44.75;99326.31;5053030;28;20057;-64
2023/04/24 07:23:03;;;;;;;8.45;4.47;;;;;;;20.34;44.62;99322.78;5053841;28;20106;-63
2023/04/24 07:25:31;;;;;;;5.20;3.88;;;;;;;20.34;44.76;99323.63;5054379;28;20398;-64
2023/04/24 07:28:00;;;;;;;7.55;4.43;;;;;;;20.34;44.20;99326.31;5054580;28;20489;-65
2023/04/24 07:30:29;;;;;;;5.95;4.03;;;;;;;20.35;44.65;99327.16;5054391;28;20052;-65
2023/04/24 07:32:57;;;;;;;7.65;4.63;;;;;;;20.36;44.54;99334.25;5054491;28;20055;-64
2023/04/24 07:35:26;;;;;;;5.65;4.20;;;;;;;20.36;44.73;99334.25;5054341;28;20414;-65
2023/04/24 07:37:56;;;;;;;7.90;4.45;;;;;;;20.36;44.69;99324.28;5054481;28;20402;-64
2023/04/24 07:40:24;;;;;;;6.97;4.00;;;;;;;20.37;44.32;99319.72;5054385;28;20501;-65
2023/04/24 07:42:52;;;;;;;6.00;4.20;;;;;;;20.38;44.62;99327.66;5054447;28;20132;-64
2023/04/24 07:45:20;;;;;;;5.55;3.90;;;;;;;20.38;44.34;99321.41;5053965;28;20053;-64
2023/04/24 07:47:48;;;;;;;8.60;4.30;;;;;;;20.39;44.71;99320.38;5054693;28;20048;-64
2023/04/24 07:50:17;;;;;;;5.88;3.80;;;;;;;20.40;44.46;99320.22;5054495;28;20075;-65
2023/04/24 07:52:45;;;;;;;5.40;3.92;;;;;;;20.40;44.67;99319.38;5054379;28;20433;-65
2023/04/24 07:55:15;;;;;;;7.70;3.92;;;;;;;20.42;44.62;99320.03;5054306;28;20111;-67
2023/04/24 07:57:43;;;;;;;6.85;3.97;;;;;;;20.41;44.75;99319.19;5054233;28;20048;-65
2023/04/24 08:00:12;;;;;;;7.22;4.13;;;;;;;20.42;44.77;99320.03;5054441;28;20049;-65
2023/04/24 08:02:41;;;;;;;6.90;4.20;;;;;;;20.43;44.79;99317.16;5054334;28;20048;-64
2023/04/24 08:05:09;;;;;;;6.95;4.57;;;;;;;20.44;44.40;99315.28;5054292;28;20593;-64
2023/04/24 08:07:39;;;;;;;6.90;4.32;;;;;;;20.45;44.83;99328.66;5054058;28;20060;-64
2023/04/24 08:10:08;;;;;;;8.77;4.55;;;;;;;20.46;44.74;99324.97;5053936;28;20499;-65
2023/04/24 08:12:41;;;;;;;6.28;4.40;;;;;;;20.46;44.50;99324.97;5054183;28;20045;-64
2023/04/24 08:15:10;;;;;;;5.97;4.15;;;;;;;20.46;44.42;99319.53;5053959;28;20059;-64
2023/04/24 08:17:38;;;;;;;6.65;4.20;;;;;;;20.46;44.89;99319.53;5054029;28;20057;-64
2023/04/24 08:20:13;;;;;;;6.63;3.92;;;;;;;20.48;44.83;99313.94;5053143;28;20053;-64
2023/04/24 08:22:41;;;;;;;6.57;4.28;;;;;;;20.48;44.63;99312.06;5053857;28;20562;-65
2023/04/24 08:25:10;;;;;;;7.15;4.13;;;;;;;20.50;44.88;99314.59;5054143;28;20049;-65
2023/04/24 08:27:40;;;;;;;7.97;4.28;;;;;;;20.50;44.84;99315.44;5053955;28;20057;-64
2023/04/24 08:30:09;;;;;;;6.05;4.57;;;;;;;20.51;44.77;99319.00;5053763;28;20044;-64
2023/04/24 08:32:37;;;;;;;6.53;3.83;;;;;;;20.52;44.88;99317.97;5053748;28;20049;-65
2023/04/24 08:35:08;;;;;;;7.63;4.38;;;;;;;20.52;44.98;99313.38;5053470;28;20482;-65
2023/04/24 08:37:37;;;;;;;6.28;4.18;;;;;;;20.54;44.56;99327.59;5053647;28;20549;-65
2023/04/24 08:40:13;;;;;;;6.50;4.55;;;;;;;20.54;44.68;99316.75;5053746;28;20048;-65
2023/04/24 08:42:44;;;;;;;8.02;4.20;;;;;;;20.55;44.67;99318.44;5053412;28;20132;-65
2023/04/24 08:45:13;;;;;;;6.80;4.03;;;;;;;20.55;44.79;99313.03;5053464;28;20107;-64
2023/04/24 08:47:43;;;;;;;6.95;4.30;;;;;;;20.57;44.69;99311.00;5053113;28;20155;-64
2023/04/24 08:50:13;;;;;;;6.65;4.30;;;;;;;20.58;44.60;99301.84;5053237;28;20567;-64
2023/04/24 08:52:42;;;;;;;5.82;3.78;;;;;;;20.58;44.89;99312.69;5053615;28;20132;-64
2023/04/24 08:55:11;;;;;;;7.90;4.40;;;;;;;20.60;44.90;99314.38;5053335;28;20041;-65
2023/04/24 08:57:40;;;;;;;5.53;3.88;;;;;;;20.62;44.91;99312.31;5053149;28;20044;-64
2023/04/24 09:00:11;;;;;;;6.80;4.10;;;;;;;20.62;45.19;99310.44;5053158;28;20453;-65
2023/04/24 09:02:43;;;;;;;6.65;4.10;;;;;;;20.64;45.00;99302.13;5052860;28;20110;-65
2023/04/24 09:05:17;;;;;;;5.25;3.80;;;;;;;20.64;44.88;99299.44;5053124;28;20368;-64
2023/04/24 09:07:50;;;;;;;7.07;4.00;;;;;;;20.66;45.06;99300.97;5053160;28;20053;-64
2023/04/24 09:10:18;;;;;;;5.07;3.65;;;;;;;20.68;44.89;99298.06;5053079;28;20091;-65
2023/04/24 09:12:47;;;;;;;5.70;4.05;;;;;;;20.68;44.59;99301.63;5052712;28;20425;-64
2023/04/24 09:15:17;;;;;;;6.22;3.95;;;;;;;20.70;45.06;99304.13;5052976;28;20391;-65
2023/04/24 09:17:46;;;;;;;9.13;4.38;;;;;;;20.71;44.76;99298.53;5053043;28;20048;-64
2023/04/24 09:20:17;;;;;;;6.53;4.05;;;;;;;20.72;44.83;99291.25;5052858;28;20132;-65
2023/04/24 09:22:46;;;;;;;5.88;3.95;;;;;;;20.75;44.73;99290.88;5052608;28;20049;-65
2023/04/24 09:25:14;;;;;;;7.15;3.92;;;;;;;20.78;44.92;99288.66;5052535;28;20095;-65
2023/04/24 09:27:44;;;;;;;5.72;3.97;;;;;;;20.79;44.92;99286.78;5052613;28;20574;-65
2023/04/24 09:30:13;;;;;;;6.93;4.00;;;;;;;20.80;45.05;99286.59;5052634;28;20500;-65
2023/04/24 09:32:43;;;;;;;5.32;3.78;;;;;;;20.83;44.96;99282.69;5052740;28;20421;-65
2023/04/24 09:35:13;;;;;;;6.05;4.15;;;;;;;20.84;44.66;99273.53;5052507;28;20045;-65
2023/04/24 09:37:43;;;;;;;6.38;4.10;;;;;;;20.84;44.82;99276.25;5052476;28;20587;-65
2023/04/24 09:40:13;;;;;;;6.28;3.85;;;;;;;20.86;44.81;99271.50;5052251;28;20067;-65
2023/04/24 09:42:46;;;;;;;5.85;3.60;;;;;;;20.87;44.90;99262.34;5052397;28;20509;-67
2023/04/24 09:45:14;;;;;;;5.47;3.55;;;;;;;20.89;45.00;99271.13;5052293;28;20064;-66
2023/04/24 09:47:45;;;;;;;6.15;4.10;;;;;;;20.90;44.88;99261.97;5052646;28;20413;-66
2023/04/24 09:50:15;;;;;;;5.18;3.65;;;;;;;20.93;45.09;99260.75;5052060;28;20083;-65
2023/04/24 09:52:45;;;;;;;6.55;3.83;;;;;;;20.93;45.15;99256.19;5051927;28;20095;-65
2023/04/24 09:55:17;;;;;;;6.32;3.67;;;;;;;20.95;45.10;99254.16;5052215;28;20079;-65
2023/04/24 09:57:50;;;;;;;6.97;4.03;;;;;;;20.96;45.04;99245.00;5052157;28;20053;-66
2023/04/24 10:00:23;;;;;;;4.70;3.50;;;;;;;20.99;44.77;99251.91;5052015;28;20053;-66
2023/04/24 10:02:55;;;;;;;6.30;3.80;;;;;;;21.00;45.12;99243.59;5051770;28;20053;-65
2023/04/24 10:05:32;;;;;;;6.60;3.80;;;;;;;21.00;45.15;99249.00;5051953;28;20159;-66
2023/04/24 10:08:05;;;;;;;6.22;3.33;;;;;;;21.02;45.19;99249.66;5052043;28;20049;-66
2023/04/24 10:10:38;;;;;;;5.63;3.70;;;;;;;21.04;45.06;99257.63;5051890;28;20287;-66
2023/04/24 10:13:07;;;;;;;6.13;3.67;;;;;;;21.06;44.96;99250.16;5051670;28;20049;-65
2023/04/24 10:15:36;;;;;;;5.55;3.45;;;;;;;21.08;44.80;99256.22;5051495;28;20059;-66
2023/04/24 10:18:07;;;;;;;5.97;3.60;;;;;;;21.09;44.98;99255.19;5051455;28;20475;-66
2023/04/24 10:20:36;;;;;;;5.00;3.33;;;;;;;21.11;45.04;99253.97;5051552;28;20087;-66
2023/04/24 10:23:05;;;;;;;5.65;3.47;;;;;;;21.12;44.68;99244.81;5051578;28;20088;-66
2023/04/24 10:25:35;;;;;;;5.10;3.33;;;;;;;21.15;45.03;99249.06;5050448;28;20041;-66
2023/04/24 10:28:04;;;;;;;7.28;3.55;;;;;;;21.17;45.03;99257.00;5051200;28;20477;-66
2023/04/24 10:30:36;;;;;;;5.68;3.22;;;;;;;21.16;44.90;99239.88;5051655;28;20055;-66
2023/04/24 10:33:07;;;;;;;5.18;3.08;;;;;;;21.18;44.63;99242.41;5051855;28;20056;-65
2023/04/24 10:35:41;;;;;;;5.85;3.50;;;;;;;21.19;44.57;99253.06;5051580;28;20047;-66
2023/04/24 10:38:12;;;;;;;5.15;3.30;;;;;;;21.19;44.74;99239.50;5051296;28;20088;-65
2023/04/24 10:40:40;;;;;;;6.75;3.60;;;;;;;21.19;44.86;99239.50;5051295;28;20052;-65
2023/04/24 10:43:10;;;;;;;5.63;3.58;;;;;;;21.22;44.61;99244.53;5051061;28;20048;-65
2023/04/24 10:45:40;;;;;;;5.45;3.13;;;;;;;21.22;44.76;99246.41;5051023;28;20083;-66
2023/04/24 10:48:13;;;;;;;4.45;3.30;;;;;;;21.24;44.60;99242.53;5051128;28;20111;-65
2023/04/24 10:50:47;;;;;;;5.00;3.20;;;;;;;21.25;44.71;99248.78;5050897;28;20052;-66
2023/04/24 10:53:17;;;;;;;5.65;3.38;;;;;;;21.26;44.75;99239.63;5051060;28;20060;-65
2023/04/24 10:55:47;;;;;;;5.25;3.75;;;;;;;21.27;44.32;99244.88;5051253;28;20051;-66
2023/04/24 10:58:17;;;;;;;5.53;3.80;;;;;;;21.27;44.67;99239.47;5051051;28;20045;-66
2023/04/24 11:00:59;;;;;;;5.13;3.72;;;;;;;21.28;44.45;99243.84;5051152;28;20048;-66
2023/04/24 11:03:30;;;;;;;5.32;4.07;;;;;;;21.29;44.43;99233.84;5051176;28;20128;-65
2023/04/24 11:06:02;;;;;;;5.85;3.97;;;;;;;21.29;44.82;99233.84;5051074;28;20098;-66
2023/04/24 11:08:38;;;;;;;6.18;3.67;;;;;;;21.31;44.52;99229.06;5051203;28;20049;-66
2023/04/24 11:11:11;;;;;;;6.15;3.60;;;;;;;21.32;44.49;99236.19;5051081;28;20072;-66
2023/04/24 11:14:08;;;;;;;5.70;3.50;;;;;;;21.33;44.71;99224.34;5051091;28;20051;-66
2023/04/24 11:16:46;;;;;;;5.43;3.80;;;;;;;21.34;44.36;99231.44;5051085;28;20080;-66
2023/04/24 11:19:25;;;;;;;6.93;4.07;;;;;;;21.35;44.43;99233.13;5051058;28;20513;-65
2023/04/24 11:22:00;;;;;;;5.75;3.75;;;;;;;21.35;44.55;99223.09;5051159;28;20045;-65
2023/04/24 11:24:34;;;;;;;6.55;3.78;;;;;;;21.38;44.60;99227.31;5050640;28;20053;-66
2023/04/24 11:27:08;;;;;;;5.57;3.72;;;;;;;21.38;44.76;99216.47;5050969;28;20103;-65
2023/04/24 11:29:41;;;;;;;5.18;3.60;;;;;;;21.39;44.76;99220.84;5051079;28;20139;-65
2023/04/24 11:32:31;;;;;;;6.35;3.83;;;;;;;21.40;44.55;99211.69;5050977;28;20129;-66
2023/04/24 11:35:03;;;;;;;5.20;3.95;;;;;;;21.40;44.52;99219.81;5046600;28;20421;-66
2023/04/24 11:37:36;;;;;;;6.32;3.97;;;;;;;21.41;44.78;99210.66;5051006;28;20045;-66
2023/04/24 11:40:06;;;;;;;5.57;3.78;;;;;;;21.43;44.66;99211.31;5050816;28;20123;-66
2023/04/24 11:42:35;;;;;;;6.53;3.90;;;;;;;21.43;44.67;99214.03;5050627;28;20053;-66
2023/04/24 11:45:09;;;;;;;5.65;3.67;;;;;;;21.44;44.85;99207.59;5050607;28;20098;-66